sensor_id;sensor_type;location;lat;lon;timestamp;pressure;altitude;pressure_sealevel;temperature
81319;BMP280;74078;48.420;14.828;2023-11-21T00:01:03;92065.94;;;3.62
81319;BMP280;74078;48.420;14.828;2023-11-21T00:03:29;92057.59;;;3.65
81319;BMP280;74078;48.420;14.828;2023-11-21T00:05:55;92056.72;;;3.65
81319;BMP280;74078;48.420;14.828;2023-11-21T00:08:20;92052.25;;;3.79
81319;BMP280;74078;48.420;14.828;2023-11-21T00:10:45;92054.44;;;3.61
81319;BMP280;74078;48.420;14.828;2023-11-21T00:13:10;92050.84;;;3.62
81319;BMP280;74078;48.420;14.828;2023-11-21T00:15:37;92040.78;;;3.62
81319;BMP280;74078;48.420;14.828;2023-11-21T00:18:02;92040.47;;;3.76
81319;BMP280;74078;48.420;14.828;2023-11-21T00:20:27;92038.44;;;3.87
81319;BMP280;74078;48.420;14.828;2023-11-21T00:22:53;92029.41;;;3.90
81319;BMP280;74078;48.420;14.828;2023-11-21T00:25:18;92021.69;;;3.97
81319;BMP280;74078;48.420;14.828;2023-11-21T00:27:43;92011.72;;;4.10
81319;BMP280;74078;48.420;14.828;2023-11-21T00:30:09;92015.47;;;4.01
81319;BMP280;74078;48.420;14.828;2023-11-21T00:32:38;92010.53;;;3.98
81319;BMP280;74078;48.420;14.828;2023-11-21T00:35:03;92020.59;;;3.98
81319;BMP280;74078;48.420;14.828;2023-11-21T00:37:28;92029.00;;;4.08
81319;BMP280;74078;48.420;14.828;2023-11-21T00:39:54;92021.09;;;4.09
81319;BMP280;74078;48.420;14.828;2023-11-21T00:42:19;92034.28;;;3.97
81319;BMP280;74078;48.420;14.828;2023-11-21T00:44:44;92029.63;;;3.79
81319;BMP280;74078;48.420;14.828;2023-11-21T00:47:09;92032.94;;;3.76
81319;BMP280;74078;48.420;14.828;2023-11-21T00:49:35;92025.16;;;3.71
81319;BMP280;74078;48.420;14.828;2023-11-21T00:52:00;92023.81;;;3.82
81319;BMP280;74078;48.420;14.828;2023-11-21T00:54:26;92025.88;;;3.87
81319;BMP280;74078;48.420;14.828;2023-11-21T00:56:52;92020.66;;;3.78
81319;BMP280;74078;48.420;14.828;2023-11-21T00:59:17;92014.47;;;3.83
81319;BMP280;74078;48.420;14.828;2023-11-21T01:01:42;92015.59;;;3.82
81319;BMP280;74078;48.420;14.828;2023-11-21T01:04:07;92016.34;;;3.79
81319;BMP280;74078;48.420;14.828;2023-11-21T01:06:33;92013.84;;;3.79
81319;BMP280;74078;48.420;14.828;2023-11-21T01:08:58;92019.91;;;3.65
81319;BMP280;74078;48.420;14.828;2023-11-21T01:11:23;92017.41;;;3.65
81319;BMP280;74078;48.420;14.828;2023-11-21T01:13:48;92014.94;;;3.62
81319;BMP280;74078;48.420;14.828;2023-11-21T01:16:14;92017.03;;;3.47
81319;BMP280;74078;48.420;14.828;2023-11-21T01:18:39;92015.22;;;3.47
81319;BMP280;74078;48.420;14.828;2023-11-21T01:21:04;92008.72;;;3.34
81319;BMP280;74078;48.420;14.828;2023-11-21T01:23:29;92013.16;;;3.26
81319;BMP280;74078;48.420;14.828;2023-11-21T01:25:55;92017.09;;;3.27
81319;BMP280;74078;48.420;14.828;2023-11-21T01:28:21;92011.22;;;3.34
81319;BMP280;74078;48.420;14.828;2023-11-21T01:30:46;92006.97;;;3.31
81319;BMP280;74078;48.420;14.828;2023-11-21T01:33:11;92011.94;;;3.34
81319;BMP280;74078;48.420;14.828;2023-11-21T01:35:37;92003.47;;;3.44
81319;BMP280;74078;48.420;14.828;2023-11-21T01:38:02;92002.06;;;3.60
81319;BMP280;74078;48.420;14.828;2023-11-21T01:40:28;92011.28;;;3.66
81319;BMP280;74078;48.420;14.828;2023-11-21T01:42:55;92013.47;;;3.64
81319;BMP280;74078;48.420;14.828;2023-11-21T01:45:21;92011.56;;;3.68
81319;BMP280;74078;48.420;14.828;2023-11-21T01:47:46;92012.66;;;3.83
81319;BMP280;74078;48.420;14.828;2023-11-21T01:50:15;92011.81;;;3.74
81319;BMP280;74078;48.420;14.828;2023-11-21T01:52:42;92008.28;;;3.71
81319;BMP280;74078;48.420;14.828;2023-11-21T01:55:08;92007.00;;;3.79
81319;BMP280;74078;48.420;14.828;2023-11-21T01:57:35;92003.72;;;3.82
81319;BMP280;74078;48.420;14.828;2023-11-21T02:00:02;92000.81;;;3.84
81319;BMP280;74078;48.420;14.828;2023-11-21T02:02:41;92004.19;;;3.93
81319;BMP280;74078;48.420;14.828;2023-11-21T02:05:07;91994.91;;;3.90
81319;BMP280;74078;48.420;14.828;2023-11-21T02:07:33;92006.09;;;3.89
81319;BMP280;74078;48.420;14.828;2023-11-21T02:09:59;92004.47;;;3.95
81319;BMP280;74078;48.420;14.828;2023-11-21T02:12:25;92002.47;;;3.90
81319;BMP280;74078;48.420;14.828;2023-11-21T02:14:51;92007.25;;;3.85
81319;BMP280;74078;48.420;14.828;2023-11-21T02:17:16;92003.72;;;3.82
81319;BMP280;74078;48.420;14.828;2023-11-21T02:19:43;92005.53;;;3.66
81319;BMP280;74078;48.420;14.828;2023-11-21T02:22:08;92001.38;;;3.43
81319;BMP280;74078;48.420;14.828;2023-11-21T02:24:34;92005.25;;;3.28
81319;BMP280;74078;48.420;14.828;2023-11-21T02:27:00;92000.88;;;2.76
81319;BMP280;74078;48.420;14.828;2023-11-21T02:29:25;91992.97;;;2.78
81319;BMP280;74078;48.420;14.828;2023-11-21T02:31:53;91990.09;;;3.15
81319;BMP280;74078;48.420;14.828;2023-11-21T02:34:19;91999.88;;;3.26
81319;BMP280;74078;48.420;14.828;2023-11-21T02:36:45;92001.38;;;2.87
81319;BMP280;74078;48.420;14.828;2023-11-21T02:39:10;91997.44;;;2.86
81319;BMP280;74078;48.420;14.828;2023-11-21T02:41:39;92002.47;;;2.86
81319;BMP280;74078;48.420;14.828;2023-11-21T02:44:05;91992.50;;;2.83
81319;BMP280;74078;48.420;14.828;2023-11-21T02:46:31;91995.78;;;2.80
81319;BMP280;74078;48.420;14.828;2023-11-21T02:48:57;91993.66;;;2.78
81319;BMP280;74078;48.420;14.828;2023-11-21T02:51:23;91998.56;;;2.85
81319;BMP280;74078;48.420;14.828;2023-11-21T02:53:48;91998.63;;;2.98
81319;BMP280;74078;48.420;14.828;2023-11-21T02:56:14;91992.91;;;2.97
81319;BMP280;74078;48.420;14.828;2023-11-21T02:58:42;91993.63;;;3.18
81319;BMP280;74078;48.420;14.828;2023-11-21T03:01:09;91989.06;;;3.29
81319;BMP280;74078;48.420;14.828;2023-11-21T03:03:37;91987.97;;;3.30
81319;BMP280;74078;48.420;14.828;2023-11-21T03:06:05;91985.31;;;3.37
81319;BMP280;74078;48.420;14.828;2023-11-21T03:08:32;91992.78;;;3.40
81319;BMP280;74078;48.420;14.828;2023-11-21T03:10:58;91986.91;;;3.47
81319;BMP280;74078;48.420;14.828;2023-11-21T03:13:23;91981.09;;;3.50
81319;BMP280;74078;48.420;14.828;2023-11-21T03:15:49;91979.91;;;3.55
81319;BMP280;74078;48.420;14.828;2023-11-21T03:18:15;91983.81;;;3.56
81319;BMP280;74078;48.420;14.828;2023-11-21T03:20:43;91976.38;;;3.52
81319;BMP280;74078;48.420;14.828;2023-11-21T03:23:12;91975.59;;;3.55
81319;BMP280;74078;48.420;14.828;2023-11-21T03:25:38;91978.44;;;3.57
81319;BMP280;74078;48.420;14.828;2023-11-21T03:28:05;91969.09;;;3.58
81319;BMP280;74078;48.420;14.828;2023-11-21T03:30:31;91968.31;;;3.61
81319;BMP280;74078;48.420;14.828;2023-11-21T03:32:58;91968.38;;;3.57
81319;BMP280;74078;48.420;14.828;2023-11-21T03:35:27;91956.19;;;3.56
81319;BMP280;74078;48.420;14.828;2023-11-21T03:37:56;91958.41;;;3.54
81319;BMP280;74078;48.420;14.828;2023-11-21T03:40:23;91961.28;;;3.52
81319;BMP280;74078;48.420;14.828;2023-11-21T03:42:49;91959.91;;;3.51
81319;BMP280;74078;48.420;14.828;2023-11-21T03:45:16;91960.66;;;3.48
81319;BMP280;74078;48.420;14.828;2023-11-21T03:47:42;91958.06;;;3.51
81319;BMP280;74078;48.420;14.828;2023-11-21T03:50:09;91956.28;;;3.52
81319;BMP280;74078;48.420;14.828;2023-11-21T03:52:35;91958.03;;;3.55
81319;BMP280;74078;48.420;14.828;2023-11-21T03:55:02;91963.19;;;3.64
81319;BMP280;74078;48.420;14.828;2023-11-21T03:57:28;91961.00;;;3.66
81319;BMP280;74078;48.420;14.828;2023-11-21T03:59:55;91962.09;;;3.65
81319;BMP280;74078;48.420;14.828;2023-11-21T04:02:22;91954.38;;;3.72
81319;BMP280;74078;48.420;14.828;2023-11-21T04:04:52;91950.63;;;3.80
81319;BMP280;74078;48.420;14.828;2023-11-21T04:07:19;91947.78;;;3.78
81319;BMP280;74078;48.420;14.828;2023-11-21T04:09:46;91951.31;;;3.81
81319;BMP280;74078;48.420;14.828;2023-11-21T04:12:13;91947.63;;;3.85
81319;BMP280;74078;48.420;14.828;2023-11-21T04:14:39;91941.09;;;3.88
81319;BMP280;74078;48.420;14.828;2023-11-21T04:17:05;91939.59;;;3.90
81319;BMP280;74078;48.420;14.828;2023-11-21T04:19:32;91938.69;;;3.84
81319;BMP280;74078;48.420;14.828;2023-11-21T04:21:58;91939.59;;;3.90
81319;BMP280;74078;48.420;14.828;2023-11-21T04:24:24;91948.25;;;3.89
81319;BMP280;74078;48.420;14.828;2023-11-21T04:26:51;91941.50;;;3.86
81319;BMP280;74078;48.420;14.828;2023-11-21T04:29:17;91949.97;;;3.76
81319;BMP280;74078;48.420;14.828;2023-11-21T04:31:44;91943.53;;;3.75
81319;BMP280;74078;48.420;14.828;2023-11-21T04:34:14;91945.75;;;3.73
81319;BMP280;74078;48.420;14.828;2023-11-21T04:36:41;91950.97;;;3.66
81319;BMP280;74078;48.420;14.828;2023-11-21T04:39:08;91770.53;;;3.61
81319;BMP280;74078;48.420;14.828;2023-11-21T04:41:38;91955.34;;;3.62
81319;BMP280;74078;48.420;14.828;2023-11-21T04:44:08;91957.53;;;3.60
81319;BMP280;74078;48.420;14.828;2023-11-21T04:46:34;91949.84;;;3.51
81319;BMP280;74078;48.420;14.828;2023-11-21T04:49:00;91947.50;;;3.44
81319;BMP280;74078;48.420;14.828;2023-11-21T04:51:26;91949.44;;;3.36
81319;BMP280;74078;48.420;14.828;2023-11-21T04:53:53;91957.06;;;3.33
81319;BMP280;74078;48.420;14.828;2023-11-21T04:56:22;91954.84;;;3.19
81319;BMP280;74078;48.420;14.828;2023-11-21T04:58:49;91962.69;;;3.21
81319;BMP280;74078;48.420;14.828;2023-11-21T05:01:15;91969.03;;;3.09
81319;BMP280;74078;48.420;14.828;2023-11-21T05:03:42;91967.31;;;2.86
81319;BMP280;74078;48.420;14.828;2023-11-21T05:06:11;91971.25;;;2.87
81319;BMP280;74078;48.420;14.828;2023-11-21T05:08:38;91980.44;;;2.94
81319;BMP280;74078;48.420;14.828;2023-11-21T05:11:04;91982.06;;;2.84
81319;BMP280;74078;48.420;14.828;2023-11-21T05:13:35;91985.44;;;2.58
81319;BMP280;74078;48.420;14.828;2023-11-21T05:16:02;91980.53;;;2.51
81319;BMP280;74078;48.420;14.828;2023-11-21T05:18:32;91977.03;;;2.45
81319;BMP280;74078;48.420;14.828;2023-11-21T05:20:59;91973.66;;;2.32
81319;BMP280;74078;48.420;14.828;2023-11-21T05:23:26;91981.88;;;2.13
81319;BMP280;74078;48.420;14.828;2023-11-21T05:25:52;91983.91;;;2.21
81319;BMP280;74078;48.420;14.828;2023-11-21T05:28:19;91982.72;;;2.49
81319;BMP280;74078;48.420;14.828;2023-11-21T05:30:53;91983.91;;;2.41
81319;BMP280;74078;48.420;14.828;2023-11-21T05:33:20;91982.22;;;2.58
81319;BMP280;74078;48.420;14.828;2023-11-21T05:35:47;91982.31;;;2.70
81319;BMP280;74078;48.420;14.828;2023-11-21T05:38:14;91991.47;;;2.80
81319;BMP280;74078;48.420;14.828;2023-11-21T05:40:40;91985.44;;;2.94
81319;BMP280;74078;48.420;14.828;2023-11-21T05:43:07;81137.59;;;2.95
81319;BMP280;74078;48.420;14.828;2023-11-21T05:45:33;91988.53;;;3.02
81319;BMP280;74078;48.420;14.828;2023-11-21T05:48:00;91980.34;;;2.97
81319;BMP280;74078;48.420;14.828;2023-11-21T05:50:28;91980.56;;;3.07
81319;BMP280;74078;48.420;14.828;2023-11-21T05:52:54;91984.34;;;3.15
81319;BMP280;74078;48.420;14.828;2023-11-21T05:55:22;91982.84;;;3.17
81319;BMP280;74078;48.420;14.828;2023-11-21T05:57:51;91984.19;;;3.22
81319;BMP280;74078;48.420;14.828;2023-11-21T06:00:17;91974.63;;;3.17
81319;BMP280;74078;48.420;14.828;2023-11-21T06:02:46;91989.19;;;3.06
81319;BMP280;74078;48.420;14.828;2023-11-21T06:05:13;91996.72;;;3.06
81319;BMP280;74078;48.420;14.828;2023-11-21T06:07:42;91998.72;;;3.14
81319;BMP280;74078;48.420;14.828;2023-11-21T06:10:10;92002.78;;;3.08
81319;BMP280;74078;48.420;14.828;2023-11-21T06:12:38;92000.06;;;2.99
81319;BMP280;74078;48.420;14.828;2023-11-21T06:15:05;92005.03;;;3.03
81319;BMP280;74078;48.420;14.828;2023-11-21T06:17:34;92001.88;;;2.98
81319;BMP280;74078;48.420;14.828;2023-11-21T06:20:05;91992.09;;;3.04
81319;BMP280;74078;48.420;14.828;2023-11-21T06:22:35;91998.16;;;3.23
81319;BMP280;74078;48.420;14.828;2023-11-21T06:25:02;91997.31;;;3.29
81319;BMP280;74078;48.420;14.828;2023-11-21T06:27:31;91999.25;;;3.22
81319;BMP280;74078;48.420;14.828;2023-11-21T06:29:57;92000.19;;;3.12
81319;BMP280;74078;48.420;14.828;2023-11-21T06:32:24;91999.78;;;3.13
81319;BMP280;74078;48.420;14.828;2023-11-21T06:34:51;92011.13;;;3.02
81319;BMP280;74078;48.420;14.828;2023-11-21T06:37:20;92011.34;;;2.91
81319;BMP280;74078;48.420;14.828;2023-11-21T06:39:49;92013.00;;;3.17
81319;BMP280;74078;48.420;14.828;2023-11-21T06:42:18;92019.66;;;3.08
81319;BMP280;74078;48.420;14.828;2023-11-21T06:44:47;92030.63;;;3.14
81319;BMP280;74078;48.420;14.828;2023-11-21T06:47:17;92030.41;;;3.08
81319;BMP280;74078;48.420;14.828;2023-11-21T06:49:46;92038.38;;;3.03
81319;BMP280;74078;48.420;14.828;2023-11-21T06:52:15;92031.94;;;3.02
81319;BMP280;74078;48.420;14.828;2023-11-21T06:54:41;92036.16;;;3.05
81319;BMP280;74078;48.420;14.828;2023-11-21T06:57:08;92039.25;;;3.13
81319;BMP280;74078;48.420;14.828;2023-11-21T06:59:34;92040.38;;;3.12
81319;BMP280;74078;48.420;14.828;2023-11-21T07:02:01;92043.06;;;3.21
81319;BMP280;74078;48.420;14.828;2023-11-21T07:04:27;92042.94;;;3.28
81319;BMP280;74078;48.420;14.828;2023-11-21T07:06:54;92044.31;;;3.29
81319;BMP280;74078;48.420;14.828;2023-11-21T07:09:20;92042.72;;;3.38
81319;BMP280;74078;48.420;14.828;2023-11-21T07:11:52;92041.06;;;3.48
81319;BMP280;74078;48.420;14.828;2023-11-21T07:14:19;92043.25;;;3.66
81319;BMP280;74078;48.420;14.828;2023-11-21T07:16:47;92042.59;;;3.78
81319;BMP280;74078;48.420;14.828;2023-11-21T07:19:13;92047.22;;;3.79
81319;BMP280;74078;48.420;14.828;2023-11-21T07:21:40;92041.09;;;3.80
81319;BMP280;74078;48.420;14.828;2023-11-21T07:24:06;92048.91;;;3.86
81319;BMP280;74078;48.420;14.828;2023-11-21T07:26:42;92049.28;;;3.84
81319;BMP280;74078;48.420;14.828;2023-11-21T07:29:09;92054.94;;;3.88
81319;BMP280;74078;48.420;14.828;2023-11-21T07:31:37;92047.00;;;3.90
81319;BMP280;74078;48.420;14.828;2023-11-21T07:34:04;92051.66;;;3.91
81319;BMP280;74078;48.420;14.828;2023-11-21T07:36:30;92048.75;;;3.93
81319;BMP280;74078;48.420;14.828;2023-11-21T07:38:57;92048.75;;;3.93
81319;BMP280;74078;48.420;14.828;2023-11-21T07:41:23;92064.38;;;4.00
81319;BMP280;74078;48.420;14.828;2023-11-21T07:43:50;92061.53;;;4.15
81319;BMP280;74078;48.420;14.828;2023-11-21T07:46:19;92046.72;;;4.33
81319;BMP280;74078;48.420;14.828;2023-11-21T07:48:46;92049.69;;;4.44
81319;BMP280;74078;48.420;14.828;2023-11-21T07:51:12;92054.13;;;4.40
81319;BMP280;74078;48.420;14.828;2023-11-21T07:53:39;92061.19;;;4.29
81319;BMP280;74078;48.420;14.828;2023-11-21T07:56:06;92061.13;;;4.32
81319;BMP280;74078;48.420;14.828;2023-11-21T07:58:36;92059.56;;;4.22
81319;BMP280;74078;48.420;14.828;2023-11-21T08:01:02;92066.09;;;4.20
81319;BMP280;74078;48.420;14.828;2023-11-21T08:03:29;92067.03;;;4.10
81319;BMP280;74078;48.420;14.828;2023-11-21T08:05:59;92068.63;;;4.03
81319;BMP280;74078;48.420;14.828;2023-11-21T08:08:34;92073.00;;;3.99
81319;BMP280;74078;48.420;14.828;2023-11-21T08:11:00;92075.22;;;3.97
81319;BMP280;74078;48.420;14.828;2023-11-21T08:13:29;92078.94;;;3.93
81319;BMP280;74078;48.420;14.828;2023-11-21T08:15:58;92078.28;;;3.89
81319;BMP280;74078;48.420;14.828;2023-11-21T08:18:28;92076.47;;;3.89
81319;BMP280;74078;48.420;14.828;2023-11-21T08:20:55;92082.28;;;4.02
81319;BMP280;74078;48.420;14.828;2023-11-21T08:23:21;92088.47;;;4.14
81319;BMP280;74078;48.420;14.828;2023-11-21T08:25:51;92085.81;;;4.21
81319;BMP280;74078;48.420;14.828;2023-11-21T08:28:18;92094.41;;;4.24
81319;BMP280;74078;48.420;14.828;2023-11-21T08:30:45;92083.69;;;4.03
81319;BMP280;74078;48.420;14.828;2023-11-21T08:33:12;92085.28;;;3.97
81319;BMP280;74078;48.420;14.828;2023-11-21T08:35:38;92087.94;;;3.90
81319;BMP280;74078;48.420;14.828;2023-11-21T08:38:05;92088.09;;;3.99
81319;BMP280;74078;48.420;14.828;2023-11-21T08:40:31;92089.81;;;4.19
81319;BMP280;74078;48.420;14.828;2023-11-21T08:42:58;92091.09;;;4.27
81319;BMP280;74078;48.420;14.828;2023-11-21T08:45:30;92091.91;;;4.36
81319;BMP280;74078;48.420;14.828;2023-11-21T08:47:57;92089.81;;;4.51
81319;BMP280;74078;48.420;14.828;2023-11-21T08:50:23;92089.31;;;4.56
81319;BMP280;74078;48.420;14.828;2023-11-21T08:52:49;92086.88;;;4.52
81319;BMP280;74078;48.420;14.828;2023-11-21T08:55:16;92086.19;;;4.52
81319;BMP280;74078;48.420;14.828;2023-11-21T08:57:45;92092.53;;;4.40
81319;BMP280;74078;48.420;14.828;2023-11-21T09:00:15;92096.13;;;4.27
81319;BMP280;74078;48.420;14.828;2023-11-21T09:02:43;92102.50;;;4.31
81319;BMP280;74078;48.420;14.828;2023-11-21T09:05:10;92099.16;;;4.50
81319;BMP280;74078;48.420;14.828;2023-11-21T09:07:38;92095.56;;;4.80
81319;BMP280;74078;48.420;14.828;2023-11-21T09:10:05;92095.44;;;5.13
81319;BMP280;74078;48.420;14.828;2023-11-21T09:12:33;92092.50;;;5.01
81319;BMP280;74078;48.420;14.828;2023-11-21T09:15:04;92092.25;;;4.83
81319;BMP280;74078;48.420;14.828;2023-11-21T09:17:31;92093.50;;;4.75
81319;BMP280;74078;48.420;14.828;2023-11-21T09:19:57;92086.06;;;5.00
81319;BMP280;74078;48.420;14.828;2023-11-21T09:22:24;92085.56;;;5.05
81319;BMP280;74078;48.420;14.828;2023-11-21T09:24:51;92084.34;;;4.97
81319;BMP280;74078;48.420;14.828;2023-11-21T09:27:17;92086.22;;;4.93
81319;BMP280;74078;48.420;14.828;2023-11-21T09:29:43;92089.34;;;4.85
81319;BMP280;74078;48.420;14.828;2023-11-21T09:32:10;92085.34;;;4.71
81319;BMP280;74078;48.420;14.828;2023-11-21T09:34:43;92082.84;;;4.71
81319;BMP280;74078;48.420;14.828;2023-11-21T09:37:09;92082.66;;;4.78
81319;BMP280;74078;48.420;14.828;2023-11-21T09:39:36;92085.47;;;4.80
81319;BMP280;74078;48.420;14.828;2023-11-21T09:42:12;92084.69;;;4.83
81319;BMP280;74078;48.420;14.828;2023-11-21T09:44:43;92081.69;;;4.88
81319;BMP280;74078;48.420;14.828;2023-11-21T09:47:12;92083.53;;;5.00
81319;BMP280;74078;48.420;14.828;2023-11-21T09:49:42;92082.84;;;5.13
81319;BMP280;74078;48.420;14.828;2023-11-21T09:52:22;92071.91;;;5.32
81319;BMP280;74078;48.420;14.828;2023-11-21T09:54:55;92071.09;;;5.47
81319;BMP280;74078;48.420;14.828;2023-11-21T09:57:25;92072.78;;;5.76
81319;BMP280;74078;48.420;14.828;2023-11-21T09:59:53;92070.88;;;5.42
81319;BMP280;74078;48.420;14.828;2023-11-21T10:02:27;92072.44;;;5.10
81319;BMP280;74078;48.420;14.828;2023-11-21T10:04:56;92073.25;;;5.07
81319;BMP280;74078;48.420;14.828;2023-11-21T10:07:24;92067.72;;;5.25
81319;BMP280;74078;48.420;14.828;2023-11-21T10:09:51;92075.56;;;5.02
81319;BMP280;74078;48.420;14.828;2023-11-21T10:12:17;92066.34;;;4.70
81319;BMP280;74078;48.420;14.828;2023-11-21T10:14:46;92070.47;;;4.77
81319;BMP280;74078;48.420;14.828;2023-11-21T10:17:14;92078.84;;;4.86
81319;BMP280;74078;48.420;14.828;2023-11-21T10:19:45;92074.41;;;4.90
81319;BMP280;74078;48.420;14.828;2023-11-21T10:22:12;92073.16;;;5.11
81319;BMP280;74078;48.420;14.828;2023-11-21T10:24:40;92066.63;;;5.26
81319;BMP280;74078;48.420;14.828;2023-11-21T10:27:09;92064.84;;;5.52
81319;BMP280;74078;48.420;14.828;2023-11-21T10:29:36;92063.13;;;5.49
81319;BMP280;74078;48.420;14.828;2023-11-21T10:32:02;92068.75;;;5.28
81319;BMP280;74078;48.420;14.828;2023-11-21T10:34:29;92063.13;;;5.61
81319;BMP280;74078;48.420;14.828;2023-11-21T10:36:55;92067.06;;;5.62
81319;BMP280;74078;48.420;14.828;2023-11-21T10:39:23;92060.31;;;5.47
81319;BMP280;74078;48.420;14.828;2023-11-21T10:41:54;92074.63;;;5.62
81319;BMP280;74078;48.420;14.828;2023-11-21T10:44:21;92071.69;;;5.64
81319;BMP280;74078;48.420;14.828;2023-11-21T10:46:52;92063.53;;;5.98
81319;BMP280;74078;48.420;14.828;2023-11-21T10:49:24;92061.56;;;6.02
81319;BMP280;74078;48.420;14.828;2023-11-21T10:51:51;92066.88;;;6.16
81319;BMP280;74078;48.420;14.828;2023-11-21T10:54:22;92064.50;;;5.88
81319;BMP280;74078;48.420;14.828;2023-11-21T10:56:49;92066.22;;;5.91
81319;BMP280;74078;48.420;14.828;2023-11-21T10:59:16;92062.50;;;5.83
81319;BMP280;74078;48.420;14.828;2023-11-21T11:01:42;92067.53;;;5.95
81319;BMP280;74078;48.420;14.828;2023-11-21T11:04:08;92063.94;;;5.84
81319;BMP280;74078;48.420;14.828;2023-11-21T11:06:39;92069.25;;;5.98
81319;BMP280;74078;48.420;14.828;2023-11-21T11:09:05;92062.41;;;5.86
81319;BMP280;74078;48.420;14.828;2023-11-21T11:11:33;92067.22;;;6.06
81319;BMP280;74078;48.420;14.828;2023-11-21T11:13:58;92066.47;;;6.18
81319;BMP280;74078;48.420;14.828;2023-11-21T11:16:25;92068.22;;;6.08
81319;BMP280;74078;48.420;14.828;2023-11-21T11:18:53;92066.22;;;6.03
81319;BMP280;74078;48.420;14.828;2023-11-21T11:23:55;92066.63;;;5.89
81319;BMP280;74078;48.420;14.828;2023-11-21T11:36:47;92073.31;;;6.17
81319;BMP280;74078;48.420;14.828;2023-11-21T11:39:29;92072.72;;;6.26
81319;BMP280;74078;48.420;14.828;2023-11-21T11:42:02;92062.47;;;6.64
81319;BMP280;74078;48.420;14.828;2023-11-21T11:52:36;92060.13;;;6.48
81319;BMP280;74078;48.420;14.828;2023-11-21T11:55:04;92063.09;;;6.34
81319;BMP280;74078;48.420;14.828;2023-11-21T11:57:32;92063.59;;;6.41
81319;BMP280;74078;48.420;14.828;2023-11-21T12:00:14;92065.34;;;6.32
81319;BMP280;74078;48.420;14.828;2023-11-21T12:02:50;92067.88;;;6.32
81319;BMP280;74078;48.420;14.828;2023-11-21T12:05:17;92063.22;;;5.96
81319;BMP280;74078;48.420;14.828;2023-11-21T12:07:46;92056.94;;;6.00
81319;BMP280;74078;48.420;14.828;2023-11-21T12:10:12;92061.47;;;6.05
81319;BMP280;74078;48.420;14.828;2023-11-21T12:12:41;92055.38;;;6.15
81319;BMP280;74078;48.420;14.828;2023-11-21T12:15:07;92062.81;;;5.97
81319;BMP280;74078;48.420;14.828;2023-11-21T12:17:32;92051.72;;;5.82
81319;BMP280;74078;48.420;14.828;2023-11-21T12:20:05;92055.88;;;5.51
81319;BMP280;74078;48.420;14.828;2023-11-21T12:22:31;92057.41;;;5.36
81319;BMP280;74078;48.420;14.828;2023-11-21T12:24:56;92056.28;;;5.37
81319;BMP280;74078;48.420;14.828;2023-11-21T12:27:22;92060.81;;;5.42
81319;BMP280;74078;48.420;14.828;2023-11-21T12:29:47;92057.41;;;5.36
81319;BMP280;74078;48.420;14.828;2023-11-21T12:32:12;92062.03;;;5.37
81319;BMP280;74078;48.420;14.828;2023-11-21T12:34:41;92061.72;;;5.48
81319;BMP280;74078;48.420;14.828;2023-11-21T12:37:06;92070.69;;;5.74
81319;BMP280;74078;48.420;14.828;2023-11-21T12:39:31;92064.34;;;5.82
81319;BMP280;74078;48.420;14.828;2023-11-21T12:41:57;92069.78;;;5.68
81319;BMP280;74078;48.420;14.828;2023-11-21T12:44:22;92065.88;;;5.67
81319;BMP280;74078;48.420;14.828;2023-11-21T12:46:49;92065.03;;;5.57
81319;BMP280;74078;48.420;14.828;2023-11-21T12:49:14;92071.88;;;5.57
81319;BMP280;74078;48.420;14.828;2023-11-21T12:51:43;92068.88;;;5.62
81319;BMP280;74078;48.420;14.828;2023-11-21T12:54:08;92077.88;;;5.63
81319;BMP280;74078;48.420;14.828;2023-11-21T12:56:37;92070.78;;;5.45
81319;BMP280;74078;48.420;14.828;2023-11-21T12:59:03;92064.84;;;5.52
81319;BMP280;74078;48.420;14.828;2023-11-21T13:01:29;92066.84;;;5.44
81319;BMP280;74078;48.420;14.828;2023-11-21T13:03:57;92060.38;;;5.56
81319;BMP280;74078;48.420;14.828;2023-11-21T13:06:22;92065.66;;;5.49
81319;BMP280;74078;48.420;14.828;2023-11-21T13:08:50;92065.44;;;5.56
81319;BMP280;74078;48.420;14.828;2023-11-21T13:11:16;92066.66;;;5.39
81319;BMP280;74078;48.420;14.828;2023-11-21T13:13:42;92065.97;;;5.38
81319;BMP280;74078;48.420;14.828;2023-11-21T13:16:08;92067.47;;;5.36
81319;BMP280;74078;48.420;14.828;2023-11-21T13:18:34;92066.44;;;5.33
81319;BMP280;74078;48.420;14.828;2023-11-21T13:21:04;92070.47;;;5.31
81319;BMP280;74078;48.420;14.828;2023-11-21T13:23:38;92070.16;;;5.41
81319;BMP280;74078;48.420;14.828;2023-11-21T13:26:05;92078.03;;;5.31
81319;BMP280;74078;48.420;14.828;2023-11-21T13:28:31;92069.47;;;5.28
81319;BMP280;74078;48.420;14.828;2023-11-21T13:30:58;92074.31;;;5.23
81319;BMP280;74078;48.420;14.828;2023-11-21T13:33:27;92067.84;;;5.22
81319;BMP280;74078;48.420;14.828;2023-11-21T13:35:53;92076.06;;;5.09
81319;BMP280;74078;48.420;14.828;2023-11-21T13:38:21;92078.41;;;5.04
81319;BMP280;74078;48.420;14.828;2023-11-21T13:40:54;92074.00;;;5.21
81319;BMP280;74078;48.420;14.828;2023-11-21T13:43:20;92076.22;;;5.31
81319;BMP280;74078;48.420;14.828;2023-11-21T13:45:46;92078.81;;;5.15
81319;BMP280;74078;48.420;14.828;2023-11-21T13:48:12;92084.75;;;5.08
81319;BMP280;74078;48.420;14.828;2023-11-21T13:50:56;92088.47;;;5.04
81319;BMP280;74078;48.420;14.828;2023-11-21T13:53:26;92092.69;;;5.07
81319;BMP280;74078;48.420;14.828;2023-11-21T13:55:52;92095.44;;;5.13
81319;BMP280;74078;48.420;14.828;2023-11-21T13:58:22;92095.44;;;5.13
81319;BMP280;74078;48.420;14.828;2023-11-21T14:00:51;92093.75;;;5.22
81319;BMP280;74078;48.420;14.828;2023-11-21T14:03:23;92104.34;;;5.42
81319;BMP280;74078;48.420;14.828;2023-11-21T14:06:03;92100.94;;;5.49
81319;BMP280;74078;48.420;14.828;2023-11-21T14:08:33;92113.31;;;5.56
81319;BMP280;74078;48.420;14.828;2023-11-21T14:10:59;92107.50;;;5.59
81319;BMP280;74078;48.420;14.828;2023-11-21T14:13:27;92114.56;;;5.51
81319;BMP280;74078;48.420;14.828;2023-11-21T14:15:52;92107.19;;;5.57
81319;BMP280;74078;48.420;14.828;2023-11-21T14:18:27;92111.63;;;5.53
81319;BMP280;74078;48.420;14.828;2023-11-21T14:21:01;92105.50;;;5.54
81319;BMP280;74078;48.420;14.828;2023-11-21T14:23:26;92110.41;;;5.45
81319;BMP280;74078;48.420;14.828;2023-11-21T14:25:51;92118.59;;;5.49
81319;BMP280;74078;48.420;14.828;2023-11-21T14:28:17;92124.56;;;5.55
81319;BMP280;74078;48.420;14.828;2023-11-21T14:30:42;92125.66;;;5.54